Sidney

Airport
ICAO code: 
KSDY
Summary
ICAO Region: 
NAM
Territory: 
Location: 
Sidney, Richland, Montana,
Coordinates: 
Aerial View: 
47° 42' 24.847" N, 104° 11' 34.804" W
Metar
Observation
KSDY 260356Z AUTO 20015KT 10SM CLR M12/M14 A2998 RMK AO2 PRESFR SLP208 T11171144 FZRANO
Station
Sidney-Richland
Date/Time
2022-01-26 03:56:00
Wind direction
200°
Wind speed
15 kts
Lowest cloud amount
n/a
Temperature
-11.7°C
Dew point
-14.4°C
Humidity
80%
Weather condition
n/a

Description

Sidney-Richland Municipal Airport is a public airport located 2 km west of the central business district (CBD) of Sidney, a city in Richland County, Montana, USA.

Climatology

A semi-arid steppe climate (Köppen climate classification BSk), with generally cold, dry winters and hot summers. Late spring and early summer is on average the wettest period of the year. During the summer warm, humid air masses more typical of a warm summer continental climate (Köppen climate classification Dfb) may move into the area from the south or east. Summertime thunderstorms commonly occur and sometimes can be severe featuring hail and, infrequently, funnel clouds or tornadoes.

Runways

Designator Length Width Surface Rops
10/28 1226 30 ASP Yes/Yes
1/19 1739 30 ASP Yes/Yes
Airport map: 
Aerial View: 

SKYbrary Partners:

Safety knowledge contributed by: